RJTA(METAR)
12/15 16:00
METAR RJTA 150700Z 34003KT 310V010 9999 FEW030 BKN230 08/M04 Q1022
RMK 1CU030 A3018=
戻る
トップページへ戻る
IMOC Co,.Ltd.